sensor_id;sensor_type;location;lat;lon;timestamp;P1;durP1;ratioP1;P2;durP2;ratioP2
44858;SDS011;30595;52.478;13.524;2022-09-01T00:18:56;174.48;;;122.05;;
44858;SDS011;30595;52.478;13.524;2022-09-01T00:44:03;174.25;;;120.65;;
44858;SDS011;30595;52.478;13.524;2022-09-01T01:09:08;167.82;;;119.60;;
44858;SDS011;30595;52.478;13.524;2022-09-01T01:34:13;166.40;;;119.93;;
44858;SDS011;30595;52.478;13.524;2022-09-01T01:59:19;165.57;;;119.68;;
44858;SDS011;30595;52.478;13.524;2022-09-01T02:24:26;165.80;;;118.97;;
44858;SDS011;30595;52.478;13.524;2022-09-01T02:49:33;175.35;;;120.35;;
44858;SDS011;30595;52.478;13.524;2022-09-01T03:14:38;181.18;;;120.13;;
44858;SDS011;30595;52.478;13.524;2022-09-01T03:39:43;203.63;;;125.47;;
44858;SDS011;30595;52.478;13.524;2022-09-01T04:04:52;186.20;;;121.40;;
44858;SDS011;30595;52.478;13.524;2022-09-01T04:29:56;204.50;;;122.40;;
44858;SDS011;30595;52.478;13.524;2022-09-01T04:55:07;205.93;;;123.85;;
44858;SDS011;30595;52.478;13.524;2022-09-01T05:20:12;255.68;;;137.52;;
44858;SDS011;30595;52.478;13.524;2022-09-01T05:45:17;199.95;;;130.93;;
44858;SDS011;30595;52.478;13.524;2022-09-01T06:10:26;193.70;;;131.25;;
44858;SDS011;30595;52.478;13.524;2022-09-01T06:35:32;172.85;;;131.85;;
44858;SDS011;30595;52.478;13.524;2022-09-01T07:00:38;171.18;;;132.25;;
44858;SDS011;30595;52.478;13.524;2022-09-01T07:25:45;253.88;;;143.57;;
44858;SDS011;30595;52.478;13.524;2022-09-01T07:51:10;184.05;;;130.13;;
44858;SDS011;30595;52.478;13.524;2022-09-01T08:16:35;185.98;;;129.80;;
44858;SDS011;30595;52.478;13.524;2022-09-01T08:41:55;249.30;;;138.20;;
44858;SDS011;30595;52.478;13.524;2022-09-01T09:07:04;206.20;;;130.68;;
44858;SDS011;30595;52.478;13.524;2022-09-01T09:32:15;188.15;;;126.65;;
44858;SDS011;30595;52.478;13.524;2022-09-01T09:57:39;196.07;;;127.50;;
44858;SDS011;30595;52.478;13.524;2022-09-01T10:22:44;203.85;;;130.43;;
44858;SDS011;30595;52.478;13.524;2022-09-01T10:47:52;186.15;;;126.82;;
44858;SDS011;30595;52.478;13.524;2022-09-01T11:13:01;191.02;;;128.63;;
44858;SDS011;30595;52.478;13.524;2022-09-01T11:38:11;199.43;;;130.77;;
44858;SDS011;30595;52.478;13.524;2022-09-01T12:03:21;203.18;;;129.40;;
44858;SDS011;30595;52.478;13.524;2022-09-01T12:28:26;195.52;;;128.52;;
44858;SDS011;30595;52.478;13.524;2022-09-01T12:53:34;177.98;;;126.05;;
44858;SDS011;30595;52.478;13.524;2022-09-01T13:18:39;194.02;;;127.22;;
44858;SDS011;30595;52.478;13.524;2022-09-01T13:44:04;219.57;;;133.50;;
44858;SDS011;30595;52.478;13.524;2022-09-01T14:09:08;197.43;;;128.52;;
44858;SDS011;30595;52.478;13.524;2022-09-01T14:34:19;204.30;;;130.38;;
44858;SDS011;30595;52.478;13.524;2022-09-01T14:59:23;181.55;;;126.53;;
44858;SDS011;30595;52.478;13.524;2022-09-01T15:24:27;200.57;;;129.82;;
44858;SDS011;30595;52.478;13.524;2022-09-01T15:49:32;221.10;;;133.55;;
44858;SDS011;30595;52.478;13.524;2022-09-01T16:14:38;195.10;;;128.32;;
44858;SDS011;30595;52.478;13.524;2022-09-01T16:39:43;181.07;;;125.00;;
44858;SDS011;30595;52.478;13.524;2022-09-01T17:04:51;203.43;;;128.65;;
44858;SDS011;30595;52.478;13.524;2022-09-01T17:29:57;200.70;;;128.45;;
44858;SDS011;30595;52.478;13.524;2022-09-01T17:55:04;196.57;;;126.15;;
44858;SDS011;30595;52.478;13.524;2022-09-01T18:20:15;196.52;;;126.82;;
44858;SDS011;30595;52.478;13.524;2022-09-01T18:45:23;192.27;;;126.13;;
44858;SDS011;30595;52.478;13.524;2022-09-01T19:10:32;216.85;;;124.60;;
44858;SDS011;30595;52.478;13.524;2022-09-01T19:35:39;188.73;;;123.10;;
44858;SDS011;30595;52.478;13.524;2022-09-01T20:00:47;169.25;;;120.28;;
44858;SDS011;30595;52.478;13.524;2022-09-01T20:25:55;185.15;;;120.93;;
44858;SDS011;30595;52.478;13.524;2022-09-01T20:51:05;191.32;;;122.85;;
44858;SDS011;30595;52.478;13.524;2022-09-01T21:43:33;165.23;;;121.15;;
44858;SDS011;30595;52.478;13.524;2022-09-01T22:09:46;179.20;;;121.88;;
44858;SDS011;30595;52.478;13.524;2022-09-01T22:34:51;176.32;;;122.22;;
44858;SDS011;30595;52.478;13.524;2022-09-01T22:59:55;176.93;;;120.25;;
44858;SDS011;30595;52.478;13.524;2022-09-01T23:25:00;167.18;;;118.05;;
44858;SDS011;30595;52.478;13.524;2022-09-01T23:50:05;164.48;;;118.57;;
